createdAt,value
2019-05-14T00:00:44.492Z,50.45
2019-05-14T00:01:44.476Z,50.34
2019-05-14T00:02:44.468Z,50.85
2019-05-14T00:03:51.526Z,50.85
2019-05-14T00:04:44.477Z,50.26
2019-05-14T00:05:44.434Z,50.96
2019-05-14T00:06:44.420Z,50.24
2019-05-14T00:07:44.419Z,50.75
2019-05-14T00:08:44.399Z,50.47
2019-05-14T00:09:44.389Z,50.67
2019-05-14T00:10:44.386Z,51.08
2019-05-14T00:11:44.370Z,50.26
2019-05-14T00:12:44.364Z,50.47
2019-05-14T00:13:44.343Z,50.78
2019-05-14T00:14:51.457Z,50.37
2019-05-14T00:15:44.318Z,50.47
2019-05-14T00:16:44.306Z,50.57
2019-05-14T00:17:44.297Z,50.26
2019-05-14T00:18:44.284Z,50.78
2019-05-14T00:19:44.275Z,50.37
2019-05-14T00:20:44.276Z,51.50
2019-05-14T00:21:44.250Z,50.90
2019-05-14T00:22:44.239Z,51.39
2019-05-14T00:23:44.230Z,51.62
2019-05-14T00:24:44.216Z,50.67
2019-05-14T00:25:49.260Z,51.10
2019-05-14T00:26:44.195Z,50.80
2019-05-14T00:27:44.184Z,51.18
2019-05-14T00:28:44.173Z,51.08
2019-05-14T00:29:44.173Z,51.10
2019-05-14T00:30:44.198Z,51.90
2019-05-14T00:31:44.140Z,51.72
2019-05-14T00:32:44.132Z,51.10
2019-05-14T00:33:44.119Z,51.51
2019-05-14T00:34:44.114Z,50.70
2019-05-14T00:35:44.113Z,51.01
2019-05-14T00:36:49.105Z,51.51
2019-05-14T00:37:44.073Z,51.72
2019-05-14T00:38:44.061Z,51.10
2019-05-14T00:39:44.050Z,51.10
2019-05-14T00:40:44.052Z,51.31
2019-05-14T00:41:44.033Z,51.51
2019-05-14T00:42:44.017Z,52.23
2019-05-14T00:43:44.023Z,52.13
2019-05-14T00:44:54.501Z,52.13
2019-05-14T00:45:44.993Z,52.03
2019-05-14T00:46:43.972Z,52.03
2019-05-14T00:47:48.990Z,51.64
2019-05-14T00:48:43.950Z,51.95
2019-05-14T00:49:43.940Z,52.15
2019-05-14T00:50:43.942Z,52.05
2019-05-14T00:51:43.922Z,52.26
2019-05-14T00:52:46.316Z,51.85
2019-05-14T00:53:43.896Z,52.67
2019-05-14T00:54:43.886Z,52.26
2019-05-14T00:55:43.883Z,52.15
2019-05-14T00:56:43.862Z,52.05
2019-05-14T00:57:43.850Z,51.95
2019-05-14T00:58:48.862Z,52.08
2019-05-14T00:59:43.827Z,51.85
2019-05-14T01:00:43.826Z,52.05
2019-05-14T01:01:43.809Z,51.77
2019-05-14T01:02:43.804Z,51.87
2019-05-14T01:03:43.783Z,52.80
2019-05-14T01:04:43.777Z,51.54
2019-05-14T01:05:43.773Z,51.75
2019-05-14T01:06:43.764Z,52.90
2019-05-14T01:07:43.743Z,51.98
2019-05-14T01:08:43.733Z,51.46
2019-05-14T01:09:48.739Z,52.49
2019-05-14T01:10:43.717Z,51.87
2019-05-14T01:11:43.696Z,52.90
2019-05-14T01:12:43.685Z,52.90
2019-05-14T01:13:43.676Z,52.39
2019-05-14T01:14:43.662Z,52.90
2019-05-14T01:15:43.685Z,52.72
2019-05-14T01:16:43.640Z,52.90
2019-05-14T01:17:43.633Z,52.59
2019-05-14T01:18:43.625Z,52.92
2019-05-14T01:19:43.610Z,52.49
2019-05-14T01:20:48.653Z,52.61
2019-05-14T01:21:43.585Z,52.92
2019-05-14T01:22:43.575Z,53.44
2019-05-14T01:23:43.564Z,53.44
2019-05-14T01:24:43.560Z,52.51
2019-05-14T01:25:43.543Z,52.51
2019-05-14T01:26:43.541Z,52.31
2019-05-14T01:27:43.522Z,53.64
2019-05-14T01:28:43.508Z,52.31
2019-05-14T01:29:43.500Z,52.41
2019-05-14T01:30:43.486Z,52.61
2019-05-14T01:31:48.507Z,53.12
2019-05-14T01:32:43.469Z,53.12
2019-05-14T01:33:43.457Z,53.03
2019-05-14T01:34:43.441Z,53.54
2019-05-14T01:35:43.431Z,53.23
2019-05-14T01:36:43.432Z,53.36
2019-05-14T01:37:43.410Z,53.54
2019-05-14T01:38:43.397Z,53.87
2019-05-14T01:39:43.391Z,53.85
2019-05-14T01:40:43.379Z,54.28
2019-05-14T01:41:43.376Z,53.97
2019-05-14T01:42:48.376Z,53.97
2019-05-14T01:43:43.342Z,53.66
2019-05-14T01:44:43.331Z,54.49
2019-05-14T01:45:43.319Z,54.38
2019-05-14T01:46:43.320Z,54.28
2019-05-14T01:47:43.302Z,54.08
2019-05-14T01:48:43.287Z,53.87
2019-05-14T01:49:43.275Z,54.18
2019-05-14T01:50:43.268Z,53.97
2019-05-14T01:51:43.267Z,54.90
2019-05-14T01:52:43.273Z,54.59
2019-05-14T01:53:48.253Z,54.69
2019-05-14T01:54:43.220Z,55.00
2019-05-14T01:55:43.209Z,54.28
2019-05-14T01:56:43.212Z,55.00
2019-05-14T01:57:43.187Z,54.92
2019-05-14T01:58:43.180Z,54.51
2019-05-14T01:59:43.165Z,55.02
2019-05-14T02:00:43.155Z,55.13
2019-05-14T02:01:43.154Z,55.64
2019-05-14T02:02:43.135Z,55.74
2019-05-14T02:03:43.120Z,55.13
2019-05-14T02:04:48.131Z,55.02
2019-05-14T02:05:43.104Z,55.64
2019-05-14T02:06:43.087Z,55.43
2019-05-14T02:07:43.086Z,55.64
2019-05-14T02:08:43.075Z,55.64
2019-05-14T02:09:43.068Z,56.18
2019-05-14T02:10:43.050Z,55.64
2019-05-14T02:11:43.031Z,56.05
2019-05-14T02:12:43.030Z,56.05
2019-05-14T02:13:43.012Z,56.26
2019-05-14T02:14:42.998Z,55.26
2019-05-14T02:15:48.013Z,55.74
2019-05-14T02:16:42.982Z,55.64
2019-05-14T02:17:42.974Z,55.87
2019-05-14T02:18:42.953Z,55.57
2019-05-14T02:19:42.942Z,55.98
2019-05-14T02:20:42.932Z,55.46
2019-05-14T02:21:42.927Z,55.46
2019-05-14T02:22:42.922Z,55.46
2019-05-14T02:23:42.899Z,55.57
2019-05-14T02:24:42.886Z,55.87
2019-05-14T02:25:42.875Z,55.46
2019-05-14T02:26:47.898Z,56.18
2019-05-14T02:27:42.868Z,55.98
2019-05-14T02:28:42.852Z,55.74
2019-05-14T02:29:42.836Z,55.98
2019-05-14T02:30:51.735Z,56.18
2019-05-14T02:31:43.815Z,56.49
2019-05-14T02:32:42.810Z,56.49
2019-05-14T02:33:42.787Z,56.70
2019-05-14T02:34:42.777Z,56.79
2019-05-14T02:35:42.765Z,57.00
2019-05-14T02:36:42.755Z,57.21
2019-05-14T02:37:50.401Z,57.10
2019-05-14T02:38:42.731Z,57.21
2019-05-14T02:39:42.722Z,57.00
2019-05-14T02:40:42.710Z,57.21
2019-05-14T02:41:42.699Z,57.59
2019-05-14T02:42:42.697Z,57.62
2019-05-14T02:43:42.675Z,57.31
2019-05-14T02:44:42.671Z,57.62
2019-05-14T02:46:00.630Z,57.51
2019-05-14T02:46:43.647Z,57.93
2019-05-14T02:47:42.642Z,57.21
2019-05-14T02:48:49.159Z,57.54
2019-05-14T02:49:42.614Z,57.41
2019-05-14T02:50:42.597Z,57.72
2019-05-14T02:51:42.590Z,57.51
2019-05-14T02:52:42.600Z,58.54
2019-05-14T02:53:42.574Z,58.13
2019-05-14T02:54:42.559Z,58.26
2019-05-14T02:55:42.550Z,58.54
2019-05-14T02:56:42.532Z,58.16
2019-05-14T02:57:42.535Z,58.26
2019-05-14T02:58:42.522Z,57.95
2019-05-14T02:59:50.296Z,58.13
2019-05-14T03:00:42.494Z,58.06
2019-05-14T03:01:42.477Z,58.16
2019-05-14T03:02:42.475Z,58.26
2019-05-14T03:03:42.467Z,58.47
2019-05-14T03:04:42.441Z,58.16
2019-05-14T03:05:42.430Z,58.26
2019-05-14T03:06:42.426Z,57.95
2019-05-14T03:07:42.409Z,58.16
2019-05-14T03:08:42.408Z,58.36
2019-05-14T03:09:42.388Z,58.57
2019-05-14T03:10:50.258Z,58.16
2019-05-14T03:11:42.372Z,58.57
2019-05-14T03:12:42.382Z,58.36
2019-05-14T03:13:42.351Z,58.47
2019-05-14T03:14:42.330Z,58.26
2019-05-14T03:15:42.319Z,57.95
2019-05-14T03:16:42.308Z,58.36
2019-05-14T03:17:42.305Z,58.50
2019-05-14T03:18:42.305Z,58.50
2019-05-14T03:19:42.275Z,58.39
2019-05-14T03:20:42.263Z,58.18
2019-05-14T03:21:50.057Z,58.18
2019-05-14T03:22:55.885Z,58.80
2019-05-14T03:23:43.241Z,59.29
2019-05-14T03:24:42.219Z,58.70
2019-05-14T03:25:42.214Z,58.18
2019-05-14T03:26:42.206Z,58.18
2019-05-14T03:27:42.187Z,58.39
2019-05-14T03:28:42.193Z,58.18
2019-05-14T03:29:42.163Z,58.39
2019-05-14T03:30:43.031Z,58.21
2019-05-14T03:31:43.386Z,59.55
2019-05-14T03:32:52.045Z,59.11
2019-05-14T03:33:44.587Z,59.34
2019-05-14T03:34:43.892Z,59.45
2019-05-14T03:35:49.951Z,59.86
2019-05-14T03:36:44.045Z,59.86
2019-05-14T03:37:42.079Z,59.55
2019-05-14T03:38:42.078Z,59.86
2019-05-14T03:39:42.057Z,60.37
2019-05-14T03:40:42.048Z,60.17
2019-05-14T03:41:42.029Z,59.65
2019-05-14T03:42:42.020Z,60.06
2019-05-14T03:43:49.347Z,60.06
2019-05-14T03:44:42.004Z,59.96
2019-05-14T03:45:41.997Z,60.27
2019-05-14T03:46:51.118Z,60.17
2019-05-14T03:47:42.965Z,60.47
2019-05-14T03:48:41.956Z,60.37
2019-05-14T03:49:41.951Z,60.58
2019-05-14T03:50:41.931Z,60.27
2019-05-14T03:51:41.918Z,60.47
2019-05-14T03:52:41.939Z,60.37
2019-05-14T03:53:55.013Z,59.86
2019-05-14T03:54:49.624Z,60.47
2019-05-14T03:55:41.909Z,60.37
2019-05-14T03:56:41.865Z,60.17
2019-05-14T03:57:41.854Z,60.17
2019-05-14T03:58:41.844Z,59.86
2019-05-14T03:59:41.870Z,59.96
2019-05-14T04:00:41.824Z,60.17
2019-05-14T04:01:41.903Z,60.30
2019-05-14T04:02:41.803Z,60.50
2019-05-14T04:03:41.792Z,60.09
2019-05-14T04:04:41.789Z,60.27
2019-05-14T04:05:49.301Z,59.89
2019-05-14T04:06:41.753Z,60.19
2019-05-14T04:07:41.750Z,60.30
2019-05-14T04:08:41.729Z,60.09
2019-05-14T04:09:41.739Z,59.99
2019-05-14T04:10:49.175Z,60.50
2019-05-14T04:11:42.753Z,59.99
2019-05-14T04:12:41.690Z,59.99
2019-05-14T04:13:41.683Z,60.50
2019-05-14T04:14:41.677Z,59.89
2019-05-14T04:15:41.651Z,60.71
2019-05-14T04:17:03.865Z,59.58
2019-05-14T04:17:42.770Z,59.89
2019-05-14T04:18:41.622Z,60.61
2019-05-14T04:19:41.617Z,59.89
2019-05-14T04:20:41.615Z,59.89
2019-05-14T04:21:41.588Z,59.86
2019-05-14T04:22:41.574Z,59.68
2019-05-14T04:23:41.561Z,61.02
2019-05-14T04:24:41.881Z,60.78
2019-05-14T04:25:41.539Z,61.84
2019-05-14T04:26:56.407Z,60.78
2019-05-14T04:27:49.446Z,60.91
2019-05-14T04:28:41.506Z,60.99
2019-05-14T04:29:41.557Z,61.19
2019-05-14T04:30:41.495Z,61.33
2019-05-14T04:31:41.474Z,60.81
2019-05-14T04:32:41.559Z,61.09
2019-05-14T04:33:41.455Z,61.40
2019-05-14T04:34:41.510Z,60.68
2019-05-14T04:35:41.435Z,60.68
2019-05-14T04:36:41.423Z,60.58
2019-05-14T04:37:41.439Z,61.09
2019-05-14T04:38:51.258Z,61.71
2019-05-14T04:39:42.399Z,60.89
2019-05-14T04:40:41.385Z,61.09
2019-05-14T04:41:41.376Z,61.81
2019-05-14T04:42:41.360Z,60.99
2019-05-14T04:43:41.340Z,61.09
2019-05-14T04:44:41.332Z,61.71
2019-05-14T04:45:41.328Z,61.71
2019-05-14T04:46:41.308Z,60.99
2019-05-14T04:47:42.342Z,61.09
2019-05-14T04:48:43.585Z,61.51
2019-05-14T04:49:46.306Z,61.40
2019-05-14T04:50:41.269Z,61.81
2019-05-14T04:51:41.252Z,61.71
2019-05-14T04:52:41.246Z,60.99
2019-05-14T04:53:41.230Z,61.09
2019-05-14T04:54:41.222Z,61.81
2019-05-14T04:55:41.218Z,61.81
2019-05-14T04:56:41.194Z,61.07
2019-05-14T04:57:41.187Z,61.30
2019-05-14T04:58:41.493Z,61.71
2019-05-14T04:59:41.162Z,61.61
2019-05-14T05:00:49.581Z,61.19
2019-05-14T05:01:41.139Z,61.30
2019-05-14T05:02:41.129Z,61.07
2019-05-14T05:03:41.121Z,61.58
2019-05-14T05:04:41.589Z,61.07
2019-05-14T05:05:41.110Z,60.55
2019-05-14T05:06:41.085Z,60.14
2019-05-14T05:07:41.074Z,60.14
2019-05-14T05:08:41.063Z,59.83
2019-05-14T05:09:41.080Z,60.14
2019-05-14T05:10:41.070Z,60.24
2019-05-14T05:11:46.053Z,60.45
2019-05-14T05:12:41.022Z,60.14
2019-05-14T05:13:41.008Z,60.31
2019-05-14T05:14:41.046Z,60.52
2019-05-14T05:15:41.017Z,59.91
2019-05-14T05:16:41.013Z,59.59
2019-05-14T05:17:48.009Z,59.59
2019-05-14T05:18:41.968Z,60.21
2019-05-14T05:19:45.392Z,59.39
2019-05-14T05:20:41.951Z,59.88
2019-05-14T05:21:40.934Z,59.57
2019-05-14T05:22:48.367Z,59.67
2019-05-14T05:23:40.898Z,59.57
2019-05-14T05:24:40.898Z,59.57
2019-05-14T05:25:40.963Z,59.47
2019-05-14T05:26:40.866Z,59.57
2019-05-14T05:27:40.875Z,59.67
2019-05-14T05:28:40.867Z,59.26
2019-05-14T05:29:40.840Z,59.47
2019-05-14T05:30:40.828Z,59.47
2019-05-14T05:31:40.811Z,59.64
2019-05-14T05:32:40.814Z,59.64
2019-05-14T05:33:45.817Z,59.23
2019-05-14T05:34:40.780Z,59.34
2019-05-14T05:35:42.411Z,58.92
2019-05-14T05:36:40.750Z,59.34
2019-05-14T05:37:40.762Z,59.34
2019-05-14T05:38:40.745Z,59.13
2019-05-14T05:39:40.722Z,59.20
2019-05-14T05:40:40.729Z,58.07
2019-05-14T05:41:40.726Z,58.07
2019-05-14T05:42:40.705Z,58.49
2019-05-14T05:43:40.723Z,58.18
2019-05-14T05:44:48.171Z,58.46
2019-05-14T05:45:40.656Z,58.59
2019-05-14T05:46:43.191Z,58.67
2019-05-14T05:47:54.529Z,58.46
2019-05-14T05:48:41.665Z,57.64
2019-05-14T05:49:40.649Z,57.84
2019-05-14T05:50:40.602Z,57.84
2019-05-14T05:51:40.619Z,57.54
2019-05-14T05:52:40.577Z,57.75
2019-05-14T05:53:40.579Z,58.15
2019-05-14T05:54:40.562Z,58.05
2019-05-14T05:55:45.579Z,57.75
2019-05-14T05:56:40.549Z,57.43
2019-05-14T05:57:40.524Z,57.64
2019-05-14T05:58:40.556Z,57.33
2019-05-14T05:59:40.509Z,57.13
2019-05-14T06:00:40.528Z,57.43
2019-05-14T06:01:46.051Z,57.33
2019-05-14T06:02:41.464Z,57.84
2019-05-14T06:03:40.454Z,57.95
2019-05-14T06:04:40.465Z,57.75
2019-05-14T06:05:40.431Z,57.41
2019-05-14T06:06:48.038Z,57.31
2019-05-14T06:07:40.443Z,57.51
2019-05-14T06:08:40.405Z,57.10
2019-05-14T06:09:40.385Z,57.51
2019-05-14T06:10:40.376Z,56.97
2019-05-14T06:11:40.369Z,56.87
2019-05-14T06:12:40.374Z,56.56
2019-05-14T06:13:40.340Z,57.18
2019-05-14T06:14:40.334Z,57.10
2019-05-14T06:15:47.812Z,56.87
2019-05-14T06:16:41.309Z,56.15
2019-05-14T06:17:45.346Z,56.46
2019-05-14T06:18:40.328Z,55.82
2019-05-14T06:19:40.274Z,56.43
2019-05-14T06:20:40.260Z,55.72
2019-05-14T06:21:40.268Z,55.62
2019-05-14T06:22:40.261Z,55.38
2019-05-14T06:23:40.255Z,55.08
2019-05-14T06:24:40.226Z,55.05
2019-05-14T06:25:40.303Z,55.26
2019-05-14T06:26:40.195Z,54.72
2019-05-14T06:27:40.205Z,53.95
2019-05-14T06:28:45.203Z,53.21
2019-05-14T06:29:40.162Z,51.84
2019-05-14T06:30:40.150Z,51.12
2019-05-14T06:31:40.139Z,51.20
2019-05-14T06:32:40.140Z,50.99
2019-05-14T06:33:40.115Z,51.73
2019-05-14T06:34:40.181Z,51.45
2019-05-14T06:35:40.093Z,51.55
2019-05-14T06:36:40.089Z,51.93
2019-05-14T06:37:40.137Z,50.89
2019-05-14T06:38:40.100Z,50.84
2019-05-14T06:39:45.233Z,50.21
2019-05-14T06:40:40.048Z,49.52
2019-05-14T06:41:42.811Z,50.03
2019-05-14T06:42:40.046Z,50.15
2019-05-14T06:43:40.012Z,50.05
2019-05-14T06:44:39.996Z,50.54
2019-05-14T06:45:39.988Z,50.03
2019-05-14T06:46:39.970Z,49.75
2019-05-14T06:47:39.976Z,49.95
2019-05-14T06:48:39.951Z,49.65
2019-05-14T06:49:39.947Z,49.65
2019-05-14T06:50:44.964Z,49.44
2019-05-14T06:51:39.936Z,48.83
2019-05-14T06:52:39.930Z,48.22
2019-05-14T06:53:39.896Z,48.75
2019-05-14T06:54:39.880Z,48.85
2019-05-14T06:55:39.873Z,48.67
2019-05-14T06:56:39.862Z,49.08
2019-05-14T06:57:39.863Z,48.67
2019-05-14T06:58:39.839Z,48.77
2019-05-14T06:59:39.828Z,49.08
2019-05-14T07:00:39.815Z,48.16
2019-05-14T07:01:44.825Z,48.67
2019-05-14T07:02:43.523Z,48.88
2019-05-14T07:03:39.784Z,48.65
2019-05-14T07:04:39.777Z,49.05
2019-05-14T07:05:39.774Z,48.32
2019-05-14T07:06:39.750Z,47.89
2019-05-14T07:07:40.638Z,47.28
2019-05-14T07:08:39.735Z,47.49
2019-05-14T07:09:39.714Z,47.89
2019-05-14T07:10:39.716Z,46.67
2019-05-14T07:11:39.699Z,46.14
2019-05-14T07:12:44.724Z,45.94
2019-05-14T07:13:39.719Z,45.32
2019-05-14T07:14:39.661Z,46.44
2019-05-14T07:15:39.689Z,45.94
2019-05-14T07:16:39.637Z,46.34
2019-05-14T07:17:39.649Z,46.85
2019-05-14T07:18:52.964Z,45.71
2019-05-14T07:19:40.611Z,45.10
2019-05-14T07:20:39.612Z,45.61
2019-05-14T07:21:39.597Z,45.91
2019-05-14T07:22:39.664Z,45.71
2019-05-14T07:23:44.598Z,44.49
2019-05-14T07:24:40.683Z,43.98
2019-05-14T07:25:39.640Z,44.59
2019-05-14T07:26:39.538Z,43.98
2019-05-14T07:27:39.536Z,43.67
2019-05-14T07:28:42.040Z,43.57
2019-05-14T07:29:39.493Z,43.87
2019-05-14T07:30:39.781Z,43.06
2019-05-14T07:31:39.472Z,43.98
2019-05-14T07:32:39.823Z,43.98
2019-05-14T07:33:39.542Z,43.98
2019-05-14T07:34:44.483Z,43.77
2019-05-14T07:35:39.430Z,44.36
2019-05-14T07:36:39.424Z,44.49
2019-05-14T07:37:39.872Z,43.96
2019-05-14T07:38:39.451Z,44.06
2019-05-14T07:39:39.385Z,44.36
2019-05-14T07:40:39.399Z,42.83
2019-05-14T07:41:39.385Z,43.65
2019-05-14T07:42:39.352Z,42.43
2019-05-14T07:43:39.618Z,41.72
2019-05-14T07:44:39.392Z,43.14
2019-05-14T07:45:44.357Z,43.14
2019-05-14T07:46:39.357Z,41.82
2019-05-14T07:47:39.295Z,41.82
2019-05-14T07:48:39.534Z,42.33
2019-05-14T07:49:39.274Z,43.35
2019-05-14T07:50:39.878Z,42.82
2019-05-14T07:51:39.253Z,42.71
2019-05-14T07:52:45.525Z,42.31
2019-05-14T07:53:42.480Z,42.00
2019-05-14T07:54:39.220Z,42.49
2019-05-14T07:55:39.209Z,42.21
2019-05-14T07:56:44.215Z,42.29
2019-05-14T07:57:39.520Z,41.80
2019-05-14T07:58:39.199Z,41.78
2019-05-14T07:59:39.161Z,42.00
2019-05-14T08:00:40.218Z,41.17
2019-05-14T08:01:39.169Z,41.47
2019-05-14T08:02:39.230Z,41.29
2019-05-14T08:03:39.144Z,41.27
2019-05-14T08:04:39.122Z,41.47
2019-05-14T08:05:39.221Z,41.68
2019-05-14T08:06:39.522Z,41.38
2019-05-14T08:07:44.111Z,41.88
2019-05-14T08:08:39.059Z,41.25
2019-05-14T08:09:39.200Z,40.54
2019-05-14T08:10:39.304Z,40.84
2019-05-14T08:11:39.053Z,40.34
2019-05-14T08:12:39.314Z,40.52
2019-05-14T08:13:40.110Z,40.01
2019-05-14T08:14:45.787Z,41.13
2019-05-14T08:15:39.983Z,41.42
2019-05-14T08:16:38.966Z,40.61
2019-05-14T08:17:38.971Z,39.89
2019-05-14T08:18:43.976Z,39.69
2019-05-14T08:19:38.968Z,39.79
2019-05-14T08:20:38.952Z,40.30
2019-05-14T08:21:38.925Z,40.70
2019-05-14T08:22:38.902Z,39.69
2019-05-14T08:23:39.326Z,39.49
2019-05-14T08:24:38.905Z,39.49
2019-05-14T08:25:39.166Z,39.28
2019-05-14T08:26:42.962Z,39.69
2019-05-14T08:27:39.854Z,39.87
2019-05-14T08:28:38.836Z,39.79
2019-05-14T08:29:43.869Z,39.67
2019-05-14T08:30:39.122Z,39.28
2019-05-14T08:31:38.801Z,39.18
2019-05-14T08:32:39.159Z,39.59
2019-05-14T08:33:39.648Z,39.49
2019-05-14T08:34:39.114Z,40.20
2019-05-14T08:35:39.576Z,39.08
2019-05-14T08:36:38.744Z,39.17
2019-05-14T08:37:38.959Z,39.26
2019-05-14T08:38:38.735Z,39.37
2019-05-14T08:39:39.388Z,39.78
2019-05-14T08:40:43.733Z,39.75
2019-05-14T08:41:38.719Z,38.64
2019-05-14T08:42:38.685Z,38.95
2019-05-14T08:43:39.701Z,38.42
2019-05-14T08:44:39.087Z,36.61
2019-05-14T08:45:39.000Z,37.73
2019-05-14T08:46:38.995Z,37.62
2019-05-14T08:47:39.242Z,36.82
2019-05-14T08:48:39.097Z,37.73
2019-05-14T08:49:45.912Z,37.22
2019-05-14T08:50:39.602Z,36.91
2019-05-14T08:51:43.602Z,36.59
2019-05-14T08:52:39.193Z,36.80
2019-05-14T08:53:38.860Z,37.00
2019-05-14T08:54:39.220Z,37.02
2019-05-14T08:55:38.544Z,36.91
2019-05-14T08:56:39.058Z,37.00
2019-05-14T08:57:38.906Z,36.59
2019-05-14T08:58:38.710Z,37.30
2019-05-14T08:59:39.562Z,35.99
2019-05-14T09:00:38.844Z,35.58
2019-05-14T09:01:38.852Z,35.78
2019-05-14T09:02:43.486Z,35.88
2019-05-14T09:03:39.192Z,36.58
2019-05-14T09:04:42.579Z,35.77
2019-05-14T09:05:39.443Z,35.26
2019-05-14T09:06:38.644Z,35.86
2019-05-14T09:07:38.578Z,35.97
2019-05-14T09:08:39.085Z,34.95
2019-05-14T09:09:38.432Z,35.55
2019-05-14T09:10:40.297Z,34.64
2019-05-14T09:11:44.655Z,34.03
2019-05-14T09:12:39.347Z,35.14
2019-05-14T09:13:43.354Z,35.44
2019-05-14T09:14:38.902Z,35.85
2019-05-14T09:15:38.534Z,35.35
2019-05-14T09:16:46.432Z,34.43
2019-05-14T09:17:39.392Z,34.31
2019-05-14T09:18:38.756Z,34.53
2019-05-14T09:19:39.431Z,34.33
2019-05-14T09:20:39.264Z,34.33
2019-05-14T09:21:39.758Z,34.03
2019-05-14T09:22:39.782Z,34.53
2019-05-14T09:23:39.234Z,34.43
2019-05-14T09:24:43.261Z,34.33
2019-05-14T09:25:47.533Z,33.72
2019-05-14T09:26:39.267Z,33.42
2019-05-14T09:27:38.856Z,34.23
2019-05-14T09:28:39.167Z,33.92
2019-05-14T09:29:39.393Z,34.33
2019-05-14T09:30:38.302Z,33.20
2019-05-14T09:31:39.124Z,33.50
2019-05-14T09:32:38.960Z,33.61
2019-05-14T09:33:38.968Z,33.40
2019-05-14T09:34:39.379Z,33.92
2019-05-14T09:35:43.225Z,33.81
2019-05-14T09:36:39.520Z,33.30
2019-05-14T09:37:39.610Z,33.20
2019-05-14T09:38:42.331Z,33.10
2019-05-14T09:39:38.697Z,32.50
2019-05-14T09:40:39.653Z,32.68
2019-05-14T09:41:38.786Z,33.59
2019-05-14T09:42:39.317Z,32.88
2019-05-14T09:43:39.302Z,33.39
2019-05-14T09:44:38.761Z,33.49
2019-05-14T09:45:38.820Z,33.78
2019-05-14T09:46:42.992Z,32.16
2019-05-14T09:47:38.776Z,32.56
2019-05-14T09:48:38.268Z,32.76
2019-05-14T09:49:38.826Z,33.58
2019-05-14T09:50:38.462Z,33.58
2019-05-14T09:51:38.528Z,33.67
2019-05-14T09:52:39.141Z,34.37
2019-05-14T09:53:38.504Z,34.17
2019-05-14T09:54:41.572Z,33.37
2019-05-14T09:55:39.006Z,33.67
2019-05-14T09:56:39.558Z,33.98
2019-05-14T09:57:42.882Z,34.08
2019-05-14T09:58:38.748Z,34.08
2019-05-14T09:59:38.438Z,33.17
2019-05-14T10:00:39.002Z,33.27
2019-05-14T10:01:38.381Z,33.58
2019-05-14T10:02:39.347Z,33.67
2019-05-14T10:03:39.052Z,33.98
2019-05-14T10:04:39.175Z,33.47
2019-05-14T10:05:37.776Z,33.37
2019-05-14T10:06:39.174Z,33.37
2019-05-14T10:07:39.243Z,33.47
2019-05-14T10:08:42.759Z,34.00
2019-05-14T10:09:38.998Z,34.08
2019-05-14T10:10:39.872Z,34.38
2019-05-14T10:11:38.326Z,33.67
2019-05-14T10:12:47.685Z,34.08
2019-05-14T10:13:39.493Z,34.50
2019-05-14T10:14:39.301Z,34.40
2019-05-14T10:15:39.091Z,34.09
2019-05-14T10:16:38.551Z,33.47
2019-05-14T10:17:39.265Z,33.69
2019-05-14T10:18:38.138Z,34.22
2019-05-14T10:19:42.622Z,33.81
2019-05-14T10:20:45.181Z,34.11
2019-05-14T10:21:38.937Z,33.71
2019-05-14T10:22:39.729Z,34.31
2019-05-14T10:23:38.979Z,33.71
2019-05-14T10:24:38.631Z,34.01
2019-05-14T10:25:40.236Z,33.69
2019-05-14T10:26:39.495Z,33.49
2019-05-14T10:27:37.515Z,33.69
2019-05-14T10:28:41.268Z,33.69
2019-05-14T10:29:39.428Z,33.58
2019-05-14T10:30:42.504Z,33.58
2019-05-14T10:31:39.540Z,33.69
2019-05-14T10:32:41.374Z,33.49
2019-05-14T10:33:37.451Z,33.37
2019-05-14T10:34:37.456Z,33.78
2019-05-14T10:35:39.189Z,33.66
2019-05-14T10:36:37.426Z,33.05
2019-05-14T10:37:39.837Z,32.75
2019-05-14T10:38:38.732Z,32.55
2019-05-14T10:39:39.113Z,32.46
2019-05-14T10:40:38.453Z,32.67
2019-05-14T10:41:42.399Z,33.15
2019-05-14T10:42:40.004Z,32.73
2019-05-14T10:43:39.265Z,32.65
2019-05-14T10:44:38.696Z,33.05
2019-05-14T10:45:38.446Z,32.46
2019-05-14T10:46:38.440Z,32.76
2019-05-14T10:47:38.865Z,32.46
2019-05-14T10:48:39.493Z,33.58
2019-05-14T10:49:38.666Z,33.67
2019-05-14T10:50:55.204Z,33.49
2019-05-14T10:51:38.871Z,33.67
2019-05-14T10:52:42.263Z,33.27
2019-05-14T10:53:37.293Z,33.56
2019-05-14T10:54:40.266Z,33.47
2019-05-14T10:55:38.770Z,33.58
2019-05-14T10:56:37.197Z,33.47
2019-05-14T10:57:37.215Z,33.37
2019-05-14T10:58:37.166Z,33.67
2019-05-14T10:59:37.153Z,34.00
2019-05-14T11:00:41.506Z,33.37
2019-05-14T11:01:39.088Z,33.36
2019-05-14T11:02:38.763Z,31.34
2019-05-14T11:03:42.143Z,30.82
2019-05-14T11:04:39.026Z,31.34
2019-05-14T11:05:41.194Z,31.22
2019-05-14T11:06:38.818Z,31.51
2019-05-14T11:07:41.457Z,30.70
2019-05-14T11:08:38.648Z,30.79
2019-05-14T11:09:38.131Z,30.18
2019-05-14T11:10:41.860Z,30.88
2019-05-14T11:11:38.357Z,29.07
2019-05-14T11:12:39.612Z,29.04
2019-05-14T11:13:39.238Z,29.04
2019-05-14T11:14:42.005Z,29.52
2019-05-14T11:15:39.278Z,28.51
2019-05-14T11:16:41.559Z,28.30
2019-05-14T11:17:40.442Z,27.86
2019-05-14T11:18:39.609Z,27.14
2019-05-14T11:19:39.013Z,27.83
2019-05-14T11:20:41.696Z,27.90
2019-05-14T11:21:39.182Z,27.42
2019-05-14T11:22:36.919Z,28.04
2019-05-14T11:23:38.631Z,28.14
2019-05-14T11:24:38.539Z,29.17
2019-05-14T11:25:41.891Z,29.81
2019-05-14T11:26:39.177Z,29.81
2019-05-14T11:27:38.925Z,30.12
2019-05-14T11:28:39.219Z,30.26
2019-05-14T11:29:38.706Z,30.96
2019-05-14T11:30:39.106Z,30.34
2019-05-14T11:31:39.087Z,30.52
2019-05-14T11:32:38.506Z,30.04
2019-05-14T11:33:38.859Z,31.07
2019-05-14T11:34:39.119Z,30.76
2019-05-14T11:35:39.261Z,31.04
2019-05-14T11:36:41.767Z,29.95
2019-05-14T11:37:41.122Z,30.32
2019-05-14T11:38:37.658Z,29.74
2019-05-14T11:39:38.000Z,29.74
2019-05-14T11:40:38.722Z,29.03
2019-05-14T11:41:38.912Z,29.83
2019-05-14T11:42:38.835Z,30.04
2019-05-14T11:43:39.390Z,29.56
2019-05-14T11:44:38.208Z,29.86
2019-05-14T11:45:39.268Z,30.46
2019-05-14T11:46:47.509Z,29.23
2019-05-14T11:47:42.658Z,29.43
2019-05-14T11:48:38.959Z,28.92
2019-05-14T11:49:36.597Z,28.51
2019-05-14T11:50:36.588Z,27.26
2019-05-14T11:51:58.411Z,27.53
2019-05-14T11:52:38.887Z,26.50
2019-05-14T11:53:38.568Z,25.09
2019-05-14T11:54:40.891Z,23.96
2019-05-14T11:55:38.803Z,24.14
2019-05-14T11:56:41.528Z,24.33
2019-05-14T11:57:37.510Z,22.93
2019-05-14T11:58:41.538Z,23.93
2019-05-14T11:59:38.941Z,24.24
2019-05-14T12:00:38.768Z,25.15
2019-05-14T12:01:39.025Z,25.33
2019-05-14T12:02:38.473Z,24.33
2019-05-14T12:03:39.063Z,23.12
2019-05-14T12:04:38.954Z,23.53
2019-05-14T12:05:38.712Z,24.43
2019-05-14T12:06:39.112Z,24.33
2019-05-14T12:07:38.640Z,25.12
2019-05-14T12:08:36.491Z,24.69
2019-05-14T12:09:41.419Z,24.62
2019-05-14T12:10:38.750Z,25.21
2019-05-14T12:11:38.452Z,24.79
2019-05-14T12:12:36.346Z,24.29
2019-05-14T12:13:39.181Z,23.91
2019-05-14T12:14:38.017Z,25.21
2019-05-14T12:15:38.659Z,24.08
2019-05-14T12:16:36.308Z,25.23
2019-05-14T12:17:39.018Z,26.47
2019-05-14T12:18:41.397Z,27.10
2019-05-14T12:19:39.006Z,27.02
2019-05-14T12:20:39.356Z,27.14
2019-05-14T12:21:36.249Z,28.05
2019-05-14T12:22:41.274Z,28.14
2019-05-14T12:23:36.250Z,27.30
2019-05-14T12:24:38.553Z,26.35
2019-05-14T12:25:36.206Z,25.72
2019-05-14T12:26:38.452Z,25.01
2019-05-14T12:27:38.588Z,24.30
2019-05-14T12:28:38.628Z,24.77
2019-05-14T12:29:39.508Z,23.99
2019-05-14T12:30:36.152Z,24.92
2019-05-14T12:31:38.496Z,25.45
2019-05-14T12:32:39.182Z,26.57
2019-05-14T12:33:41.148Z,26.40
2019-05-14T12:34:38.633Z,26.81
2019-05-14T12:35:36.100Z,27.02
2019-05-14T12:36:38.719Z,27.66
2019-05-14T12:37:38.748Z,28.27
2019-05-14T12:38:38.164Z,28.78
2019-05-14T12:39:36.070Z,28.99
2019-05-14T12:40:38.247Z,28.89
2019-05-14T12:41:38.112Z,28.89
2019-05-14T12:42:38.848Z,28.69
2019-05-14T12:43:39.348Z,29.71
2019-05-14T12:44:41.125Z,29.41
2019-05-14T12:45:39.088Z,29.52
2019-05-14T12:46:35.982Z,30.22
2019-05-14T12:47:38.450Z,30.14
2019-05-14T12:48:38.679Z,30.94
2019-05-14T12:49:38.534Z,30.05
2019-05-14T12:50:35.934Z,30.35
2019-05-14T12:51:39.399Z,31.26
2019-05-14T12:52:38.869Z,30.96